12 Nov 2018 18:40 UTC 2018316+18:40 UTC

Overview Datums Bench Marks Data Query Site Visit Daily QC Messages Attributes

079: SALT08

27° 52' 14" N   97° 31' 3" W
SALT08
City of Corpus Christi Salinity Monitoring Salinity

Station Information

SALT08
SALT08
more pictures
 
Station Name:SALT08
DNR ID:079
Location:27° 52' 14" N, 97° 31' 3" W

Water Level Forecasts

Latest Observations

Series Metric English Marine Observed at
Water Temperature 16.3 °C 61.3 °F 61.3 °F Nov 12 12:30 CST
00h07m ago
Salinity 0.800 psu 0.800 psu 0.800 psu Nov 12 12:30 CST
00h07m ago

Maps

SALT08
All Stations in Area
Entire Network
 

Recent Observations

Date/Time Water
Temp (°F)
Sal (psu)
Nov 12 12:00 CST 60.8 0.700
Nov 12 11:00 CST 60.1 0.700
Nov 12 10:00 CST 59.7 0.700
Nov 12 09:00 CST 59.7 0.700
Nov 12 08:00 CST 59.7 0.600
Nov 12 07:00 CST 59.7 0.600
Nov 12 06:00 CST 59.7 0.600
Nov 12 05:00 CST 59.7 0.600
Nov 12 04:00 CST 59.7 0.600
Nov 12 03:00 CST 59.7 0.900
Nov 12 02:00 CST 59.7 0.900
Nov 12 01:00 CST 59.5 0.900
Nov 12 00:00 CST 59.7 0.800
Nov 11 23:00 CST 59.7 0.800
Nov 11 22:00 CST 59.5 0.800
Nov 11 21:00 CST 59.5 0.800
Nov 11 20:00 CST 59.7 0.500
Nov 11 19:00 CST 59.7 0.500
Nov 11 18:00 CST 59.7 0.500
Nov 11 17:00 CST 59.5 0.600
Nov 11 16:00 CST 59.4 0.600
Nov 11 15:00 CST 59.2 0.600
Nov 11 14:00 CST 58.8 0.600
Nov 11 13:00 CST 58.5 0.600
Nov 11 12:00 CST 58.3 0.600

Historical Data Availability